createdAt,value
2019-05-23T00:00:40.193Z,16.60
2019-05-23T00:01:40.202Z,16.80
2019-05-23T00:02:40.147Z,15.00
2019-05-23T00:03:40.135Z,16.30
2019-05-23T00:04:40.125Z,15.30
2019-05-23T00:05:40.154Z,15.90
2019-05-23T00:06:40.113Z,14.80
2019-05-23T00:07:40.100Z,15.40
2019-05-23T00:08:40.088Z,13.60
2019-05-23T00:09:40.078Z,15.50
2019-05-23T00:10:40.076Z,14.70
2019-05-23T00:11:40.680Z,16.40
2019-05-23T00:12:40.040Z,15.80
2019-05-23T00:13:40.031Z,15.70
2019-05-23T00:14:40.023Z,15.50
2019-05-23T00:15:40.008Z,15.30
2019-05-23T00:16:40.020Z,15.60
2019-05-23T00:17:39.988Z,17.00
2019-05-23T00:18:40.013Z,15.30
2019-05-23T00:19:39.962Z,15.80
2019-05-23T00:20:39.984Z,16.80
2019-05-23T00:21:39.944Z,13.90
2019-05-23T00:22:39.934Z,14.50
2019-05-23T00:23:39.918Z,17.10
2019-05-23T00:24:39.911Z,15.40
2019-05-23T00:25:39.918Z,16.00
2019-05-23T00:26:39.910Z,13.90
2019-05-23T00:27:39.881Z,13.60
2019-05-23T00:28:39.861Z,15.00
2019-05-23T00:29:40.524Z,14.50
2019-05-23T00:30:39.856Z,15.80
2019-05-23T00:31:39.853Z,14.30
2019-05-23T00:32:39.824Z,15.20
2019-05-23T00:33:39.809Z,14.50
2019-05-23T00:34:39.800Z,14.90
2019-05-23T00:35:39.806Z,15.50
2019-05-23T00:36:39.786Z,14.50
2019-05-23T00:37:39.766Z,14.50
2019-05-23T00:38:39.748Z,15.00
2019-05-23T00:39:39.734Z,15.80
2019-05-23T00:40:39.725Z,15.00
2019-05-23T00:41:39.739Z,14.30
2019-05-23T00:42:39.734Z,15.00
2019-05-23T00:43:39.694Z,15.40
2019-05-23T00:44:39.684Z,16.10
2019-05-23T00:45:39.678Z,15.00
2019-05-23T00:46:39.681Z,15.50
2019-05-23T00:47:39.651Z,16.10
2019-05-23T00:48:39.642Z,14.10
2019-05-23T00:49:39.627Z,15.30
2019-05-23T00:50:39.616Z,15.20
2019-05-23T00:51:39.626Z,14.20
2019-05-23T00:52:39.598Z,15.10
2019-05-23T00:53:39.590Z,14.20
2019-05-23T00:54:39.592Z,15.40
2019-05-23T00:55:39.569Z,15.20
2019-05-23T00:56:39.575Z,15.80
2019-05-23T00:57:39.540Z,15.70
2019-05-23T00:58:39.540Z,15.30
2019-05-23T00:59:39.519Z,16.50
2019-05-23T01:00:39.518Z,17.50
2019-05-23T01:01:39.515Z,15.50
2019-05-23T01:02:39.488Z,14.70
2019-05-23T01:03:39.554Z,16.50
2019-05-23T01:04:39.465Z,14.10
2019-05-23T01:05:39.493Z,17.00
2019-05-23T01:06:39.444Z,16.10
2019-05-23T01:07:39.451Z,16.20
2019-05-23T01:08:39.424Z,17.60
2019-05-23T01:09:39.404Z,16.00
2019-05-23T01:10:39.395Z,16.30
2019-05-23T01:11:39.386Z,15.40
2019-05-23T01:12:39.403Z,16.20
2019-05-23T01:13:39.358Z,14.40
2019-05-23T01:14:39.368Z,17.20
2019-05-23T01:15:39.349Z,15.10
2019-05-23T01:16:39.347Z,14.50
2019-05-23T01:17:39.337Z,17.90
2019-05-23T01:18:39.311Z,15.70
2019-05-23T01:19:39.294Z,15.70
2019-05-23T01:20:39.289Z,14.70
2019-05-23T01:21:39.301Z,16.80
2019-05-23T01:22:39.307Z,14.80
2019-05-23T01:23:39.253Z,17.60
2019-05-23T01:24:39.242Z,15.80
2019-05-23T01:25:39.245Z,14.90
2019-05-23T01:26:39.216Z,16.00
2019-05-23T01:27:39.245Z,14.70
2019-05-23T01:28:39.222Z,15.90
2019-05-23T01:29:39.236Z,15.50
2019-05-23T01:30:39.209Z,16.60
2019-05-23T01:31:39.208Z,16.90
2019-05-23T01:32:39.168Z,17.30
2019-05-23T01:33:39.179Z,14.40
2019-05-23T01:34:39.133Z,17.70
2019-05-23T01:35:39.124Z,16.10
2019-05-23T01:36:39.119Z,15.60
2019-05-23T01:37:39.098Z,16.80
2019-05-23T01:38:39.134Z,17.20
2019-05-23T01:39:39.079Z,16.80
2019-05-23T01:40:39.063Z,14.40
2019-05-23T01:41:39.070Z,15.30
2019-05-23T01:42:39.049Z,15.80
2019-05-23T01:43:39.078Z,14.70
2019-05-23T01:44:39.048Z,16.60
2019-05-23T01:45:39.017Z,16.40
2019-05-23T01:46:39.005Z,16.30
2019-05-23T01:47:39.017Z,15.30
2019-05-23T01:48:39.007Z,16.00
2019-05-23T01:49:38.981Z,14.70
2019-05-23T01:50:38.955Z,16.50
2019-05-23T01:51:38.958Z,14.90
2019-05-23T01:52:38.959Z,17.50
2019-05-23T01:53:38.960Z,15.00
2019-05-23T01:54:38.911Z,13.50
2019-05-23T01:55:38.915Z,15.40
2019-05-23T01:56:38.916Z,16.20
2019-05-23T01:57:38.878Z,15.80
2019-05-23T01:58:38.899Z,15.40
2019-05-23T01:59:38.855Z,18.30
2019-05-23T02:00:38.843Z,16.40
2019-05-23T02:01:38.838Z,15.30
2019-05-23T02:02:38.836Z,18.30
2019-05-23T02:03:38.834Z,15.40
2019-05-23T02:04:38.825Z,17.30
2019-05-23T02:05:38.806Z,17.00
2019-05-23T02:06:38.781Z,17.10
2019-05-23T02:07:38.766Z,16.60
2019-05-23T02:08:38.794Z,15.00
2019-05-23T02:09:38.776Z,15.40
2019-05-23T02:10:38.764Z,18.20
2019-05-23T02:11:38.792Z,15.00
2019-05-23T02:12:38.709Z,15.90
2019-05-23T02:13:38.726Z,15.40
2019-05-23T02:14:38.689Z,17.50
2019-05-23T02:15:38.678Z,16.70
2019-05-23T02:16:38.674Z,17.40
2019-05-23T02:17:38.683Z,15.40
2019-05-23T02:18:38.661Z,16.90
2019-05-23T02:19:38.667Z,17.20
2019-05-23T02:20:38.647Z,16.60
2019-05-23T02:21:38.620Z,16.80
2019-05-23T02:22:38.618Z,17.80
2019-05-23T02:23:38.631Z,17.70
2019-05-23T02:24:38.624Z,16.20
2019-05-23T02:25:38.602Z,15.30
2019-05-23T02:26:38.567Z,17.20
2019-05-23T02:27:38.581Z,15.20
2019-05-23T02:28:38.551Z,16.20
2019-05-23T02:29:38.576Z,16.70
2019-05-23T02:30:38.534Z,15.30
2019-05-23T02:31:38.527Z,15.10
2019-05-23T02:32:38.499Z,14.70
2019-05-23T02:33:38.517Z,13.90
2019-05-23T02:34:38.510Z,14.90
2019-05-23T02:35:38.504Z,14.50
2019-05-23T02:36:38.467Z,16.50
2019-05-23T02:37:38.455Z,16.90
2019-05-23T02:38:38.435Z,16.30
2019-05-23T02:39:38.441Z,17.40
2019-05-23T02:40:38.410Z,14.70
2019-05-23T02:41:38.393Z,17.60
2019-05-23T02:42:38.391Z,17.40
2019-05-23T02:43:38.384Z,15.90
2019-05-23T02:44:38.384Z,18.20
2019-05-23T02:45:38.375Z,15.10
2019-05-23T02:46:38.464Z,15.50
2019-05-23T02:47:38.334Z,14.90
2019-05-23T02:48:38.342Z,15.50
2019-05-23T02:49:38.342Z,13.70
2019-05-23T02:50:38.296Z,14.30
2019-05-23T02:51:38.293Z,14.10
2019-05-23T02:52:38.279Z,15.30
2019-05-23T02:53:38.265Z,15.30
2019-05-23T02:54:38.252Z,15.50
2019-05-23T02:55:38.262Z,15.10
2019-05-23T02:56:38.229Z,16.00
2019-05-23T02:57:38.217Z,15.40
2019-05-23T02:58:38.272Z,15.60
2019-05-23T02:59:38.194Z,15.60
2019-05-23T03:00:53.502Z,15.50
2019-05-23T03:01:39.191Z,15.70
2019-05-23T03:02:38.163Z,14.70
2019-05-23T03:03:38.153Z,15.80
2019-05-23T03:04:38.153Z,15.20
2019-05-23T03:05:38.181Z,14.90
2019-05-23T03:06:38.141Z,14.30
2019-05-23T03:07:38.112Z,15.00
2019-05-23T03:08:38.097Z,15.60
2019-05-23T03:09:38.107Z,15.50
2019-05-23T03:10:38.091Z,15.40
2019-05-23T03:11:38.144Z,15.20
2019-05-23T03:12:38.088Z,14.90
2019-05-23T03:13:38.062Z,17.30
2019-05-23T03:14:38.033Z,15.10
2019-05-23T03:15:38.043Z,13.90
2019-05-23T03:16:38.016Z,16.40
2019-05-23T03:17:38.035Z,14.70
2019-05-23T03:18:37.995Z,13.40
2019-05-23T03:19:37.996Z,14.40
2019-05-23T03:20:37.990Z,15.70
2019-05-23T03:21:37.983Z,14.30
2019-05-23T03:22:37.952Z,15.20
2019-05-23T03:23:37.948Z,15.80
2019-05-23T03:24:37.927Z,14.40
2019-05-23T03:25:37.936Z,15.40
2019-05-23T03:26:37.918Z,14.20
2019-05-23T03:27:37.895Z,15.50
2019-05-23T03:28:37.882Z,15.10
2019-05-23T03:29:37.897Z,15.00
2019-05-23T03:30:44.851Z,13.90
2019-05-23T03:31:37.825Z,13.60
2019-05-23T03:32:39.534Z,15.90
2019-05-23T03:33:37.790Z,14.70
2019-05-23T03:34:37.778Z,15.20
2019-05-23T03:35:37.769Z,15.10
2019-05-23T03:36:37.785Z,16.80
2019-05-23T03:37:37.744Z,13.30
2019-05-23T03:38:37.740Z,14.60
2019-05-23T03:39:37.724Z,14.40
2019-05-23T03:40:37.719Z,14.40
2019-05-23T03:41:37.740Z,16.50
2019-05-23T03:42:37.707Z,14.90
2019-05-23T03:43:37.677Z,15.40
2019-05-23T03:44:37.681Z,13.80
2019-05-23T03:45:39.693Z,16.00
2019-05-23T03:46:37.648Z,14.20
2019-05-23T03:47:37.655Z,15.00
2019-05-23T03:48:37.630Z,14.20
2019-05-23T03:49:37.613Z,16.40
2019-05-23T03:50:37.610Z,17.00
2019-05-23T03:51:37.597Z,15.80
2019-05-23T03:52:37.963Z,15.10
2019-05-23T03:53:37.599Z,15.60
2019-05-23T03:54:37.573Z,17.40
2019-05-23T03:55:37.549Z,15.60
2019-05-23T03:56:37.559Z,15.90
2019-05-23T03:57:37.548Z,14.60
2019-05-23T03:58:37.520Z,15.20
2019-05-23T03:59:37.507Z,15.40
2019-05-23T04:00:37.625Z,17.30
2019-05-23T04:01:47.532Z,16.00
2019-05-23T04:02:38.511Z,15.90
2019-05-23T04:03:40.151Z,17.30
2019-05-23T04:04:37.459Z,16.60
2019-05-23T04:05:37.465Z,17.60
2019-05-23T04:06:37.435Z,16.60
2019-05-23T04:07:37.431Z,13.80
2019-05-23T04:08:37.413Z,18.60
2019-05-23T04:09:37.422Z,15.90
2019-05-23T04:10:37.404Z,15.50
2019-05-23T04:11:37.388Z,14.80
2019-05-23T04:12:37.387Z,16.60
2019-05-23T04:13:37.349Z,14.60
2019-05-23T04:14:37.335Z,15.60
2019-05-23T04:15:37.334Z,16.20
2019-05-23T04:16:37.326Z,18.30
2019-05-23T04:17:37.328Z,17.30
2019-05-23T04:18:37.298Z,16.90
2019-05-23T04:19:37.302Z,16.90
2019-05-23T04:20:37.274Z,16.40
2019-05-23T04:21:37.269Z,16.20
2019-05-23T04:22:37.272Z,15.70
2019-05-23T04:23:37.252Z,16.90
2019-05-23T04:24:37.244Z,16.50
2019-05-23T04:25:37.221Z,15.90
2019-05-23T04:26:37.229Z,15.50
2019-05-23T04:27:37.223Z,16.40
2019-05-23T04:28:37.243Z,17.50
2019-05-23T04:29:37.181Z,15.50
2019-05-23T04:30:37.165Z,16.00
2019-05-23T04:31:37.160Z,17.30
2019-05-23T04:32:37.160Z,16.90
2019-05-23T04:33:37.131Z,17.60
2019-05-23T04:34:37.224Z,15.50
2019-05-23T04:35:37.112Z,16.50
2019-05-23T04:36:37.117Z,16.70
2019-05-23T04:37:37.104Z,16.50
2019-05-23T04:38:37.097Z,16.40
2019-05-23T04:39:37.072Z,18.60
2019-05-23T04:40:37.066Z,15.40
2019-05-23T04:41:37.070Z,16.50
2019-05-23T04:42:37.033Z,16.30
2019-05-23T04:43:37.040Z,15.80
2019-05-23T04:44:37.027Z,17.50
2019-05-23T04:45:37.000Z,17.80
2019-05-23T04:46:36.995Z,19.20
2019-05-23T04:47:36.983Z,18.10
2019-05-23T04:48:36.968Z,19.90
2019-05-23T04:49:36.979Z,17.00
2019-05-23T04:50:36.956Z,16.90
2019-05-23T04:51:36.941Z,18.90
2019-05-23T04:52:36.941Z,17.30
2019-05-23T04:53:36.912Z,19.80
2019-05-23T04:54:36.923Z,18.30
2019-05-23T04:55:36.897Z,19.40
2019-05-23T04:56:36.887Z,17.30
2019-05-23T04:57:36.868Z,17.20
2019-05-23T04:58:36.883Z,16.70
2019-05-23T04:59:36.875Z,17.10
2019-05-23T05:00:36.845Z,19.40
2019-05-23T05:01:36.857Z,17.70
2019-05-23T05:02:36.832Z,18.40
2019-05-23T05:03:36.832Z,17.30
2019-05-23T05:04:36.810Z,18.70
2019-05-23T05:05:36.797Z,18.80
2019-05-23T05:06:36.774Z,18.50
2019-05-23T05:07:36.763Z,18.20
2019-05-23T05:08:36.817Z,17.90
2019-05-23T05:09:36.879Z,17.40
2019-05-23T05:10:36.838Z,18.00
2019-05-23T05:11:36.821Z,18.00
2019-05-23T05:12:36.775Z,17.80
2019-05-23T05:13:36.752Z,19.20
2019-05-23T05:14:36.720Z,16.70
2019-05-23T05:15:36.682Z,17.30
2019-05-23T05:16:36.672Z,17.20
2019-05-23T05:17:36.692Z,18.90
2019-05-23T05:18:36.650Z,18.10
2019-05-23T05:19:36.668Z,18.90
2019-05-23T05:20:36.643Z,19.10
2019-05-23T05:21:36.612Z,18.10
2019-05-23T05:22:36.606Z,18.00
2019-05-23T05:23:36.600Z,20.60
2019-05-23T05:24:40.089Z,21.50
2019-05-23T05:25:36.578Z,18.30
2019-05-23T05:26:36.551Z,19.20
2019-05-23T05:27:36.546Z,20.70
2019-05-23T05:28:36.539Z,19.20
2019-05-23T05:29:36.526Z,17.90
2019-05-23T05:30:36.527Z,19.60
2019-05-23T05:31:36.520Z,18.50
2019-05-23T05:32:44.583Z,20.10
2019-05-23T05:33:37.603Z,19.00
2019-05-23T05:34:36.474Z,19.80
2019-05-23T05:35:36.481Z,20.50
2019-05-23T05:36:36.446Z,19.80
2019-05-23T05:37:36.455Z,19.10
2019-05-23T05:38:36.430Z,18.90
2019-05-23T05:39:36.412Z,19.10
2019-05-23T05:40:36.426Z,21.70
2019-05-23T05:41:36.568Z,19.50
2019-05-23T05:42:36.385Z,19.40
2019-05-23T05:43:36.373Z,18.70
2019-05-23T05:44:36.406Z,17.90
2019-05-23T05:45:36.344Z,21.00
2019-05-23T05:46:36.353Z,19.20
2019-05-23T05:47:36.336Z,20.40
2019-05-23T05:48:36.321Z,19.00
2019-05-23T05:49:36.310Z,20.50
2019-05-23T05:50:36.323Z,21.10
2019-05-23T05:51:36.291Z,20.00
2019-05-23T05:52:36.273Z,18.10
2019-05-23T05:53:36.265Z,19.40
2019-05-23T05:54:36.254Z,19.10
2019-05-23T05:55:36.254Z,19.50
2019-05-23T05:56:36.266Z,19.00
2019-05-23T05:57:36.216Z,19.20
2019-05-23T05:58:36.201Z,19.40
2019-05-23T05:59:36.189Z,17.90
2019-05-23T06:00:36.178Z,19.60
2019-05-23T06:01:36.193Z,17.90
2019-05-23T06:02:36.163Z,21.90
2019-05-23T06:03:36.155Z,18.80
2019-05-23T06:04:36.147Z,23.60
2019-05-23T06:05:36.154Z,23.10
2019-05-23T06:06:36.118Z,19.40
2019-05-23T06:07:36.102Z,20.50
2019-05-23T06:08:36.091Z,18.10
2019-05-23T06:09:36.095Z,19.50
2019-05-23T06:10:36.097Z,19.60
2019-05-23T06:11:36.075Z,20.50
2019-05-23T06:12:36.046Z,20.80
2019-05-23T06:13:36.035Z,21.10
2019-05-23T06:14:36.026Z,21.70
2019-05-23T06:15:36.023Z,18.80
2019-05-23T06:16:36.038Z,20.30
2019-05-23T06:17:35.993Z,19.60
2019-05-23T06:18:35.993Z,20.90
2019-05-23T06:19:36.007Z,20.80
2019-05-23T06:20:35.973Z,18.30
2019-05-23T06:21:35.974Z,21.70
2019-05-23T06:22:35.954Z,22.00
2019-05-23T06:23:35.922Z,20.60
2019-05-23T06:24:47.159Z,20.80
2019-05-23T06:25:36.910Z,21.80
2019-05-23T06:26:35.924Z,20.40
2019-05-23T06:27:35.885Z,20.60
2019-05-23T06:28:35.868Z,20.70
2019-05-23T06:29:35.868Z,21.80
2019-05-23T06:30:35.869Z,21.40
2019-05-23T06:31:35.933Z,21.70
2019-05-23T06:32:35.853Z,20.70
2019-05-23T06:33:35.825Z,22.20
2019-05-23T06:34:35.806Z,21.10
2019-05-23T06:35:35.793Z,23.70
2019-05-23T06:36:35.778Z,22.10
2019-05-23T06:37:35.797Z,25.40
2019-05-23T06:38:35.780Z,21.10
2019-05-23T06:39:35.794Z,20.10
2019-05-23T06:40:35.742Z,20.10
2019-05-23T06:41:35.727Z,24.00
2019-05-23T06:42:35.749Z,22.10
2019-05-23T06:43:35.771Z,20.60
2019-05-23T06:44:35.710Z,22.20
2019-05-23T06:45:35.709Z,20.90
2019-05-23T06:46:35.753Z,22.50
2019-05-23T06:47:35.725Z,22.60
2019-05-23T06:48:35.758Z,20.60
2019-05-23T06:49:35.690Z,22.90
2019-05-23T06:50:35.659Z,24.70
2019-05-23T06:51:35.623Z,21.20
2019-05-23T06:52:35.673Z,22.10
2019-05-23T06:53:35.628Z,19.70
2019-05-23T06:54:35.595Z,20.60
2019-05-23T06:55:35.574Z,19.70
2019-05-23T06:56:35.561Z,20.40
2019-05-23T06:57:35.582Z,18.30
2019-05-23T06:58:35.588Z,21.70
2019-05-23T06:59:35.529Z,19.80
2019-05-23T07:00:35.519Z,19.50
2019-05-23T07:01:35.506Z,19.50
2019-05-23T07:02:35.512Z,20.00
2019-05-23T07:03:42.464Z,19.50
2019-05-23T07:04:36.494Z,19.60
2019-05-23T07:05:35.466Z,21.00
2019-05-23T07:06:35.448Z,23.30
2019-05-23T07:07:35.457Z,21.40
2019-05-23T07:08:35.455Z,19.50
2019-05-23T07:09:35.424Z,21.30
2019-05-23T07:10:35.411Z,20.40
2019-05-23T07:11:35.396Z,21.10
2019-05-23T07:12:35.383Z,20.60
2019-05-23T07:13:35.465Z,22.50
2019-05-23T07:14:35.360Z,21.90
2019-05-23T07:15:35.356Z,20.80
2019-05-23T07:16:35.346Z,19.90
2019-05-23T07:17:35.331Z,20.00
2019-05-23T07:18:35.334Z,21.60
2019-05-23T07:19:35.326Z,19.90
2019-05-23T07:20:35.290Z,20.50
2019-05-23T07:21:35.285Z,21.00
2019-05-23T07:22:35.270Z,19.40
2019-05-23T07:23:35.288Z,22.70
2019-05-23T07:24:35.247Z,20.20
2019-05-23T07:25:35.242Z,21.80
2019-05-23T07:26:35.241Z,22.00
2019-05-23T07:27:35.268Z,22.70
2019-05-23T07:28:35.310Z,23.20
2019-05-23T07:29:35.247Z,21.60
2019-05-23T07:30:35.208Z,21.80
2019-05-23T07:31:35.740Z,23.30
2019-05-23T07:32:35.160Z,20.30
2019-05-23T07:33:35.158Z,20.80
2019-05-23T07:34:35.169Z,23.30
2019-05-23T07:35:35.123Z,19.90
2019-05-23T07:36:35.508Z,19.60
2019-05-23T07:37:35.115Z,20.00
2019-05-23T07:38:35.114Z,20.90
2019-05-23T07:39:35.086Z,20.00
2019-05-23T07:40:35.075Z,23.20
2019-05-23T07:41:35.078Z,20.60
2019-05-23T07:42:35.057Z,23.20
2019-05-23T07:43:35.046Z,20.10
2019-05-23T07:44:47.517Z,22.70
2019-05-23T07:45:39.596Z,22.60
2019-05-23T07:46:35.019Z,20.40
2019-05-23T07:47:34.990Z,23.60
2019-05-23T07:48:34.985Z,21.60
2019-05-23T07:49:35.008Z,21.00
2019-05-23T07:50:34.965Z,22.10
2019-05-23T07:51:34.949Z,19.50
2019-05-23T07:52:34.945Z,20.90
2019-05-23T07:53:34.933Z,20.10
2019-05-23T07:54:34.948Z,20.60
2019-05-23T07:55:34.915Z,16.60
2019-05-23T07:56:34.898Z,17.10
2019-05-23T07:57:34.913Z,16.40
2019-05-23T07:58:34.873Z,17.10
2019-05-23T07:59:34.881Z,17.90
2019-05-23T08:00:34.857Z,19.50
2019-05-23T08:01:34.844Z,16.10
2019-05-23T08:02:34.836Z,15.30
2019-05-23T08:03:34.818Z,14.50
2019-05-23T08:04:34.835Z,15.00
2019-05-23T08:05:34.813Z,15.90
2019-05-23T08:06:34.803Z,16.50
2019-05-23T08:07:34.771Z,15.60
2019-05-23T08:08:34.763Z,14.20
2019-05-23T08:09:34.772Z,14.60
2019-05-23T08:10:34.835Z,16.20
2019-05-23T08:11:34.733Z,16.40
2019-05-23T08:12:34.729Z,14.90
2019-05-23T08:13:34.703Z,15.60
2019-05-23T08:14:34.709Z,14.40
2019-05-23T08:15:34.702Z,16.50
2019-05-23T08:16:34.672Z,15.00
2019-05-23T08:17:34.680Z,15.90
2019-05-23T08:18:34.652Z,16.20
2019-05-23T08:19:48.548Z,15.30
2019-05-23T08:20:35.656Z,17.40
2019-05-23T08:21:34.625Z,16.30
2019-05-23T08:22:34.617Z,18.20
2019-05-23T08:23:34.682Z,15.70
2019-05-23T08:24:34.590Z,15.20
2019-05-23T08:25:34.597Z,15.60
2019-05-23T08:26:34.561Z,14.60
2019-05-23T08:27:34.573Z,15.80
2019-05-23T08:28:34.535Z,15.50
2019-05-23T08:29:34.531Z,16.30
2019-05-23T08:30:34.536Z,15.20
2019-05-23T08:31:34.527Z,14.10
2019-05-23T08:32:34.495Z,14.10
2019-05-23T08:33:34.485Z,14.40
2019-05-23T08:34:41.796Z,14.60
2019-05-23T08:35:35.481Z,14.40
2019-05-23T08:36:34.461Z,14.40
2019-05-23T08:37:34.441Z,14.10
2019-05-23T08:38:34.429Z,14.90
2019-05-23T08:39:34.449Z,15.20
2019-05-23T08:40:34.424Z,14.00
2019-05-23T08:41:34.401Z,12.90
2019-05-23T08:42:34.391Z,13.10
2019-05-23T08:43:34.376Z,12.60
2019-05-23T08:44:34.359Z,12.20
2019-05-23T08:45:34.348Z,12.30
2019-05-23T08:46:34.356Z,13.20
2019-05-23T08:47:34.329Z,12.60
2019-05-23T08:48:34.316Z,13.00
2019-05-23T08:49:34.306Z,13.60
2019-05-23T08:50:34.312Z,13.50
2019-05-23T08:51:34.310Z,13.40
2019-05-23T08:52:34.284Z,13.30
2019-05-23T08:53:34.289Z,12.50
2019-05-23T08:54:34.301Z,13.20
2019-05-23T08:55:34.296Z,12.10
2019-05-23T08:56:34.245Z,14.70
2019-05-23T08:57:34.219Z,12.60
2019-05-23T08:58:34.226Z,12.40
2019-05-23T08:59:34.204Z,13.30
2019-05-23T09:00:34.188Z,13.80
2019-05-23T09:01:34.207Z,12.60
2019-05-23T09:02:34.175Z,14.60
2019-05-23T09:03:34.154Z,11.20
2019-05-23T09:04:34.143Z,12.40
2019-05-23T09:05:34.175Z,10.80
2019-05-23T09:06:34.151Z,11.20
2019-05-23T09:07:34.117Z,10.70
2019-05-23T09:08:34.105Z,10.90
2019-05-23T09:09:34.101Z,11.10
2019-05-23T09:10:34.095Z,11.00
2019-05-23T09:11:34.101Z,12.40
2019-05-23T09:12:34.054Z,12.50
2019-05-23T09:13:34.060Z,12.50
2019-05-23T09:14:34.059Z,12.50
2019-05-23T09:15:34.063Z,13.10
2019-05-23T09:16:34.031Z,13.20
2019-05-23T09:17:51.549Z,11.50
2019-05-23T09:18:34.988Z,11.90
2019-05-23T09:19:33.985Z,13.00
2019-05-23T09:20:33.998Z,11.40
2019-05-23T09:21:34.047Z,12.00
2019-05-23T09:22:33.952Z,11.40
2019-05-23T09:23:33.969Z,11.20
2019-05-23T09:24:33.924Z,11.90
2019-05-23T09:25:33.954Z,13.10
2019-05-23T09:26:33.920Z,13.10
2019-05-23T09:27:34.760Z,12.40
2019-05-23T09:28:33.933Z,12.90
2019-05-23T09:29:33.868Z,11.20
2019-05-23T09:30:33.864Z,11.10
2019-05-23T09:31:33.879Z,10.40
2019-05-23T09:32:33.866Z,11.70
2019-05-23T09:33:33.836Z,10.50
2019-05-23T09:34:33.840Z,9.80
2019-05-23T09:35:33.803Z,10.90
2019-05-23T09:36:33.792Z,11.90
2019-05-23T09:37:33.824Z,13.10
2019-05-23T09:38:33.797Z,10.80
2019-05-23T09:39:33.771Z,10.80
2019-05-23T09:40:33.759Z,11.20
2019-05-23T09:41:33.737Z,12.30
2019-05-23T09:42:33.766Z,12.40
2019-05-23T09:43:33.716Z,13.50
2019-05-23T09:44:33.701Z,12.00
2019-05-23T09:45:33.694Z,12.90
2019-05-23T09:46:33.682Z,14.30
2019-05-23T09:47:33.689Z,11.90
2019-05-23T09:48:33.662Z,12.50
2019-05-23T09:49:33.657Z,10.50
2019-05-23T09:50:33.640Z,12.70
2019-05-23T09:51:33.640Z,12.50
2019-05-23T09:52:33.675Z,10.30
2019-05-23T09:53:33.615Z,13.30
2019-05-23T09:54:33.620Z,12.10
2019-05-23T09:55:33.586Z,12.60
2019-05-23T09:56:33.573Z,12.20
2019-05-23T09:57:33.602Z,14.70
2019-05-23T09:58:33.561Z,14.20
2019-05-23T09:59:33.540Z,13.90
2019-05-23T10:00:33.541Z,14.40
2019-05-23T10:01:33.525Z,14.80
2019-05-23T10:02:33.512Z,13.50
2019-05-23T10:03:33.544Z,14.90
2019-05-23T10:04:33.570Z,14.60
2019-05-23T10:05:42.948Z,13.40
2019-05-23T10:06:34.486Z,14.40
2019-05-23T10:07:33.471Z,13.90
2019-05-23T10:08:33.477Z,14.40
2019-05-23T10:09:33.435Z,13.30
2019-05-23T10:10:33.439Z,14.20
2019-05-23T10:11:33.429Z,15.50
2019-05-23T10:12:33.396Z,14.60
2019-05-23T10:13:39.100Z,15.90
2019-05-23T10:14:34.382Z,15.90
2019-05-23T10:15:33.369Z,16.00
2019-05-23T10:16:33.354Z,14.80
2019-05-23T10:17:33.366Z,14.60
2019-05-23T10:18:33.360Z,14.10
2019-05-23T10:19:33.329Z,12.90
2019-05-23T10:20:33.323Z,11.70
2019-05-23T10:21:33.300Z,11.60
2019-05-23T10:22:33.297Z,10.00
2019-05-23T10:23:33.305Z,12.00
2019-05-23T10:24:33.276Z,13.90
2019-05-23T10:25:33.267Z,13.70
2019-05-23T10:26:33.280Z,13.90
2019-05-23T10:27:33.231Z,16.10
2019-05-23T10:28:33.255Z,13.90
2019-05-23T10:29:33.207Z,15.30
2019-05-23T10:30:33.206Z,13.00
2019-05-23T10:31:33.189Z,13.40
2019-05-23T10:32:33.177Z,13.70
2019-05-23T10:33:33.179Z,12.60
2019-05-23T10:34:33.227Z,15.10
2019-05-23T10:35:33.153Z,13.70
2019-05-23T10:36:33.142Z,15.30
2019-05-23T10:37:33.134Z,14.20
2019-05-23T10:38:33.114Z,14.80
2019-05-23T10:39:33.122Z,12.90
2019-05-23T10:40:33.090Z,12.80
2019-05-23T10:41:33.092Z,13.80
2019-05-23T10:42:33.070Z,13.90
2019-05-23T10:43:33.072Z,13.00
2019-05-23T10:44:33.063Z,14.00
2019-05-23T10:45:33.035Z,12.90
2019-05-23T10:46:33.026Z,14.60
2019-05-23T10:47:33.035Z,12.90
2019-05-23T10:48:33.015Z,13.10
2019-05-23T10:49:33.037Z,12.30
2019-05-23T10:50:44.385Z,15.30
2019-05-23T10:51:33.981Z,13.00
2019-05-23T10:52:32.962Z,12.80
2019-05-23T10:53:32.944Z,14.30
2019-05-23T10:54:32.939Z,15.50
2019-05-23T10:55:32.958Z,17.00
2019-05-23T10:56:32.921Z,13.90
2019-05-23T10:57:32.901Z,13.10
2019-05-23T10:58:32.897Z,11.80
2019-05-23T10:59:32.888Z,11.80
2019-05-23T11:00:32.896Z,10.30
2019-05-23T11:01:32.868Z,12.30
2019-05-23T11:02:32.847Z,12.10
2019-05-23T11:03:32.847Z,10.10
2019-05-23T11:04:32.829Z,10.40
2019-05-23T11:05:32.827Z,9.70
2019-05-23T11:06:32.811Z,11.70
2019-05-23T11:07:32.794Z,10.50
2019-05-23T11:08:32.794Z,9.70
2019-05-23T11:09:37.877Z,11.10
2019-05-23T11:10:33.779Z,9.90
2019-05-23T11:11:32.756Z,9.60
2019-05-23T11:12:32.754Z,11.90
2019-05-23T11:13:32.743Z,10.20
2019-05-23T11:14:32.725Z,10.50
2019-05-23T11:15:32.726Z,10.50
2019-05-23T11:16:32.696Z,9.50
2019-05-23T11:17:32.714Z,10.10
2019-05-23T11:18:32.686Z,10.30
2019-05-23T11:19:32.660Z,10.20
2019-05-23T11:20:35.843Z,10.30
2019-05-23T11:21:32.636Z,12.60
2019-05-23T11:22:32.628Z,9.10
2019-05-23T11:23:32.741Z,9.40
2019-05-23T11:24:32.616Z,8.60
2019-05-23T11:25:32.623Z,10.00
2019-05-23T11:26:32.586Z,10.10
2019-05-23T11:27:32.578Z,12.60
2019-05-23T11:28:32.578Z,11.30
2019-05-23T11:29:32.572Z,9.70
2019-05-23T11:30:33.141Z,8.90
2019-05-23T11:31:32.595Z,9.40
2019-05-23T11:32:32.527Z,10.70
2019-05-23T11:33:32.508Z,9.50
2019-05-23T11:34:32.507Z,9.30
2019-05-23T11:35:32.499Z,9.80
2019-05-23T11:36:36.269Z,9.50
2019-05-23T11:37:32.477Z,9.20
2019-05-23T11:38:32.462Z,9.40
2019-05-23T11:39:32.438Z,8.90
2019-05-23T11:40:33.825Z,9.40
2019-05-23T11:41:32.424Z,11.80
2019-05-23T11:42:32.460Z,9.60
2019-05-23T11:43:32.502Z,11.40
2019-05-23T11:44:32.473Z,9.80
2019-05-23T11:45:32.501Z,9.50
2019-05-23T11:46:32.450Z,9.20
2019-05-23T11:47:32.460Z,9.30
2019-05-23T11:48:32.343Z,9.70
2019-05-23T11:49:32.332Z,8.50
2019-05-23T11:50:32.326Z,8.40
2019-05-23T11:51:32.341Z,12.00
2019-05-23T11:52:32.308Z,10.30
2019-05-23T11:53:32.293Z,10.10
2019-05-23T11:54:32.316Z,10.60
2019-05-23T11:55:32.303Z,10.00
2019-05-23T11:56:32.281Z,9.60
2019-05-23T11:57:32.256Z,7.80
2019-05-23T11:58:32.936Z,9.20
2019-05-23T11:59:32.234Z,10.10
2019-05-23T12:00:32.244Z,9.10
2019-05-23T12:01:32.241Z,10.30
2019-05-23T12:02:32.204Z,9.50
2019-05-23T12:03:32.180Z,8.40
2019-05-23T12:04:32.187Z,10.90
2019-05-23T12:05:32.169Z,9.30
2019-05-23T12:06:32.148Z,9.20
2019-05-23T12:07:32.151Z,8.90
2019-05-23T12:08:32.124Z,8.60
2019-05-23T12:09:32.114Z,9.10
2019-05-23T12:10:32.105Z,8.80
2019-05-23T12:11:36.448Z,9.10
2019-05-23T12:12:33.114Z,8.60
2019-05-23T12:13:32.080Z,9.80
2019-05-23T12:14:32.065Z,8.10
2019-05-23T12:15:32.050Z,8.00
2019-05-23T12:16:32.044Z,8.00
2019-05-23T12:17:32.061Z,7.60
2019-05-23T12:18:32.061Z,9.10
2019-05-23T12:19:32.244Z,7.10
2019-05-23T12:20:32.006Z,7.40
2019-05-23T12:21:32.013Z,8.40
2019-05-23T12:22:32.030Z,8.00
2019-05-23T12:23:31.967Z,9.80
2019-05-23T12:24:35.230Z,10.00
2019-05-23T12:25:31.951Z,9.00
2019-05-23T12:26:31.957Z,8.70
2019-05-23T12:27:31.950Z,9.30
2019-05-23T12:28:31.919Z,8.70
2019-05-23T12:29:31.915Z,7.80
2019-05-23T12:30:31.898Z,9.90
2019-05-23T12:31:31.895Z,8.90
2019-05-23T12:32:31.888Z,9.00
2019-05-23T12:33:31.881Z,9.80
2019-05-23T12:34:31.846Z,7.30
2019-05-23T12:35:31.833Z,8.90
2019-05-23T12:36:31.829Z,8.60
2019-05-23T12:37:31.858Z,7.20
2019-05-23T12:38:31.807Z,8.40
2019-05-23T12:39:31.808Z,6.90
2019-05-23T12:40:31.790Z,7.10
2019-05-23T12:41:31.791Z,8.30
2019-05-23T12:42:31.762Z,8.00
2019-05-23T12:43:31.800Z,7.20
2019-05-23T12:44:31.745Z,6.90
2019-05-23T12:45:31.730Z,6.10
2019-05-23T12:46:31.717Z,8.20
2019-05-23T12:47:31.730Z,9.10
2019-05-23T12:48:31.749Z,7.00
2019-05-23T12:49:31.688Z,8.90
2019-05-23T12:50:31.703Z,8.60
2019-05-23T12:51:31.671Z,9.00
2019-05-23T12:52:31.652Z,9.40
2019-05-23T12:53:31.721Z,7.30
2019-05-23T12:54:31.647Z,8.40
2019-05-23T12:55:31.644Z,7.30